*** The Vicarage Weather Feed ***

Nearby METAR Reports


 

CYOO - Oshawa, Municipal Airport, Ontario, Canada
Distance from station: NV 3.2km
Ultima actualizare: 14/07/2020 21:00
Senin
Senin
 Vânt dela SV
Vântul: SV 9 km/h
Temperatura: 24°C
Punct de rouă: 14°C
Umiditate: 54%
Barometru: 1018.3 hPa
Clouds: Senin
Visibility: 14 km
2020/07/15 01:00 CYOO 150100Z AUTO 23005KT 9SM CLR 24/14 A3007 RMK SLP183 DENSITY ALT 1300FT
CYKZ - Toronto, Buttonville, Municipal Airport, Ontario, Canada
Distance from station: V 39.75km
Ultima actualizare: 03/01/2019 04:00
NOT Current
Parțial înorat
Parțial înorat
 Vânt dela VSV
Vântul: VSV 7 km/h
Temperatura: -3°C
Wind Chill: -6°C
Punct de rouă: -5°C
Umiditate: 86%
Barometru: 1010.8 hPa
Clouds: Parțial înorat
Visibility: 24 km
Cloud details: Parțial înorat 1219 m
2019/01/03 09:00 CYKZ 030900Z 25004KT 15SM SCT040 M03/M05 A2985 RMK SC3 LAST STFD OBS FAREWELL SLP118
 
CXTO - Toronto City, Buttonville, Ontario, Canada
Distance from station: VSV 49km
Ultima actualizare: 14/07/2020 21:00

 
Temperatura: 24°C
Punct de rouă: 11°C
Umiditate: 44%
2020/07/15 01:00 CXTO 150100Z AUTO 24/11 RMK AO1 SLP189 T02360111 51005
CYTZ - Toronto City, Island Airport, Ontario, Canada
Distance from station: SV 51.7km
Ultima actualizare: 14/07/2020 21:00
Senin
Senin
 Vânt dela calm
Vântul: Calm
Temperatura: 23°C
Punct de rouă: 18°C
Umiditate: 74%
Barometru: 1017.9 hPa
Clouds: Senin
Visibility: 14 km
2020/07/15 01:00 CYTZ 150100Z AUTO 00000KT 9SM CLR 23/18 A3006 RMK SLP182 DENSITY ALT 1000FT
 
CYPQ - Toronto, Peterborough Airport, Ontario, Canada
Distance from station: NE 54km
Ultima actualizare: 14/07/2020 21:00

 Vânt dela S
Vântul: S 7 km/h
Temperatura: 22°C
Punct de rouă: 18°C
Umiditate: 78%
Barometru: 1018.3 hPa
Visibility: 14 km
2020/07/15 01:00 CYPQ 150100Z AUTO 19004KT 9SM 22/18 A3007 RMK CLD MISG SLP184 DENSITY ALT 1400FT
CWNC - Cobourg, (mars), Ontario, Canada
Distance from station: E 57km
Ultima actualizare: 14/07/2020 21:00

 Vânt dela VNV
Vântul: VNV 6 km/h
Temperatura: 23°C
Punct de rouă: 16°C
Umiditate: 65%
2020/07/15 01:00 CWNC 150100Z AUTO 30003KT 23/16 RMK AO1 SLP182 T02280155 51008
 
CYYZ - Toronto, Lester Pearson Airport, Ontario, Canada
Distance from station: V 65.5km
Ultima actualizare: 14/07/2020 21:00
In mare parte înorat
In mare parte înorat
 Vânt dela S
Vântul: S 7 km/h
Temperatura: 25°C
Punct de rouă: 13°C
Umiditate: 47%
Barometru: 1018.3 hPa
Clouds: In mare parte înorat
Visibility: 24 km
Cloud details: Few Clouds 2134 m
Parțial înorat 5486 m
In mare parte înorat 7010 m
2020/07/15 01:00 CYYZ 150100Z 17004KT 15SM FEW070 SCT180 BKN230 25/13 A3007 RMK AC1AC2CS4 SLP184 DENSITY ALT 1700FT
CWGL - Lagoon City, Ontario, Canada
Distance from station: NNV 74km
Ultima actualizare: 14/07/2020 21:00

 Vânt dela N
Vântul: N 9 km/h
Temperatura: 23°C
Punct de rouă: 18°C
Umiditate: 74%
2020/07/15 01:00 CWGL 150100Z AUTO 36005KT 23/18 RMK AO1 SLP172 T02280175 53003
 
CWWZ - Port Weller Airport, Ontario, Canada
Distance from station: SSV 77km
Ultima actualizare: 14/07/2020 21:00

 Vânt dela calm
Vântul: Calm
Temperatura: 23°C
Punct de rouă: 15°C
Umiditate: 61%
2020/07/15 01:00 CWWZ 150100Z AUTO 00000KT 23/15 RMK AO1 SLP182 T02330151 50001
CYSN - St.Catharines Niagara Airport, Ontario, Canada
Distance from station: SSV 81km
Ultima actualizare: 14/07/2020 21:00
In mare parte înorat
In mare parte înorat
 Vânt dela SSV
Vântul: SSV 11 km/h
Temperatura: 23°C
Punct de rouă: 16°C
Umiditate: 65%
Barometru: 1018.3 hPa
Clouds: In mare parte înorat
Visibility: 24 km
Cloud details: Parțial înorat 5486 m
In mare parte înorat 7620 m
2020/07/15 01:00 CYSN 150100Z 21006KT 180V280 15SM SCT180 BKN250 23/16 A3007 RMK CI3CI2 LAST STFD OBS/NEXT 151100Z SLP182 DENSITY ALT 1200FT
This data is offered only as a general guide to local weather conditions. It should not be relied upon in lieu of officially disseminated weather information for determining possible risk to persons or property. This site, including all information contained therein, is made available as is without warranties of any kind, either express or implied. The Vicarage Weather Feed© includes links to other sites for user convenience only. The content of any linked third-party site is not controlled by The Vicarage Weather Feed©. Access to any third-party website through The Vicarage Weather Feed©, regardless of whether or not the third-party site is a linked site, is entirely at the users own risk. Externally sourced content or material is excluded from The Vicarage Weather Feed© copyright and is the copyright and property of the respective provider. Skywarn® and the Skywarn® logo are registered trademarks of the National Oceanic and Atmospheric Administration, used with permission.